sensor_id;sensor_type;location;lat;lon;timestamp;temperature;humidity
46331;DHT22;32049;52.346;4.870;2022-09-03T00:00:09;19.80;92.60
46331;DHT22;32049;52.346;4.870;2022-09-03T00:06:25;19.70;92.90
46331;DHT22;32049;52.346;4.870;2022-09-03T00:09:42;19.60;92.80
46331;DHT22;32049;52.346;4.870;2022-09-03T00:12:36;19.60;92.90
46331;DHT22;32049;52.346;4.870;2022-09-03T00:15:26;19.50;92.90
46331;DHT22;32049;52.346;4.870;2022-09-03T00:18:20;19.60;92.90
46331;DHT22;32049;52.346;4.870;2022-09-03T00:24:22;19.50;93.10
46331;DHT22;32049;52.346;4.870;2022-09-03T00:27:16;19.50;93.10
46331;DHT22;32049;52.346;4.870;2022-09-03T00:30:15;19.50;93.10
46331;DHT22;32049;52.346;4.870;2022-09-03T00:33:09;19.40;93.10
46331;DHT22;32049;52.346;4.870;2022-09-03T00:38:50;19.40;93.30
46331;DHT22;32049;52.346;4.870;2022-09-03T00:54:23;19.30;93.40
46331;DHT22;32049;52.346;4.870;2022-09-03T00:57:19;19.20;93.40
46331;DHT22;32049;52.346;4.870;2022-09-03T01:00:17;19.10;93.60
46331;DHT22;32049;52.346;4.870;2022-09-03T01:06:31;19.10;93.60
46331;DHT22;32049;52.346;4.870;2022-09-03T01:12:29;19.20;93.90
46331;DHT22;32049;52.346;4.870;2022-09-03T01:15:51;19.10;93.60
46331;DHT22;32049;52.346;4.870;2022-09-03T01:25:06;18.90;93.90
46331;DHT22;32049;52.346;4.870;2022-09-03T01:31:07;19.00;94.00
46331;DHT22;32049;52.346;4.870;2022-09-03T01:34:14;18.90;93.90
46331;DHT22;32049;52.346;4.870;2022-09-03T01:40:34;18.90;94.00
46331;DHT22;32049;52.346;4.870;2022-09-03T01:46:41;18.90;94.20
46331;DHT22;32049;52.346;4.870;2022-09-03T01:50:09;18.80;94.20
46331;DHT22;32049;52.346;4.870;2022-09-03T02:02:23;18.70;94.50
46331;DHT22;32049;52.346;4.870;2022-09-03T02:05:23;18.70;94.40
46331;DHT22;32049;52.346;4.870;2022-09-03T02:08:11;18.70;94.70
46331;DHT22;32049;52.346;4.870;2022-09-03T02:10:59;18.50;95.10
46331;DHT22;32049;52.346;4.870;2022-09-03T02:13:52;18.60;94.80
46331;DHT22;32049;52.346;4.870;2022-09-03T02:16:41;18.50;94.60
46331;DHT22;32049;52.346;4.870;2022-09-03T02:19:31;18.50;94.90
46331;DHT22;32049;52.346;4.870;2022-09-03T02:22:20;18.50;94.90
46331;DHT22;32049;52.346;4.870;2022-09-03T02:25:08;18.50;95.10
46331;DHT22;32049;52.346;4.870;2022-09-03T02:27:57;18.30;95.10
46331;DHT22;32049;52.346;4.870;2022-09-03T02:30:44;18.50;95.00
46331;DHT22;32049;52.346;4.870;2022-09-03T02:33:36;18.40;95.30
46331;DHT22;32049;52.346;4.870;2022-09-03T02:36:27;18.40;95.10
46331;DHT22;32049;52.346;4.870;2022-09-03T02:39:16;18.30;95.10
46331;DHT22;32049;52.346;4.870;2022-09-03T02:42:03;18.40;95.20
46331;DHT22;32049;52.346;4.870;2022-09-03T02:44:54;18.30;95.30
46331;DHT22;32049;52.346;4.870;2022-09-03T02:47:43;18.20;95.50
46331;DHT22;32049;52.346;4.870;2022-09-03T02:50:40;18.20;95.40
46331;DHT22;32049;52.346;4.870;2022-09-03T02:53:27;18.20;95.30
46331;DHT22;32049;52.346;4.870;2022-09-03T02:56:15;18.20;95.50
46331;DHT22;32049;52.346;4.870;2022-09-03T02:59:04;18.10;95.70
46331;DHT22;32049;52.346;4.870;2022-09-03T03:01:52;18.20;95.60
46331;DHT22;32049;52.346;4.870;2022-09-03T03:04:40;18.20;95.40
46331;DHT22;32049;52.346;4.870;2022-09-03T03:07:31;18.10;95.60
46331;DHT22;32049;52.346;4.870;2022-09-03T03:10:19;18.10;95.60
46331;DHT22;32049;52.346;4.870;2022-09-03T03:13:06;18.10;95.80
46331;DHT22;32049;52.346;4.870;2022-09-03T03:15:59;18.10;95.50
46331;DHT22;32049;52.346;4.870;2022-09-03T03:18:48;18.00;95.50
46331;DHT22;32049;52.346;4.870;2022-09-03T03:21:37;18.10;95.50
46331;DHT22;32049;52.346;4.870;2022-09-03T03:24:24;18.10;95.60
46331;DHT22;32049;52.346;4.870;2022-09-03T03:27:12;18.00;95.70
46331;DHT22;32049;52.346;4.870;2022-09-03T03:30:01;17.90;95.90
46331;DHT22;32049;52.346;4.870;2022-09-03T03:32:48;17.90;95.80
46331;DHT22;32049;52.346;4.870;2022-09-03T03:35:36;17.90;95.90
46331;DHT22;32049;52.346;4.870;2022-09-03T03:38:23;18.00;95.80
46331;DHT22;32049;52.346;4.870;2022-09-03T03:41:16;17.90;95.90
46331;DHT22;32049;52.346;4.870;2022-09-03T03:44:05;17.90;96.00
46331;DHT22;32049;52.346;4.870;2022-09-03T03:46:53;17.90;96.00
46331;DHT22;32049;52.346;4.870;2022-09-03T03:49:40;17.90;96.00
46331;DHT22;32049;52.346;4.870;2022-09-03T03:52:28;18.00;96.10
46331;DHT22;32049;52.346;4.870;2022-09-03T03:55:15;17.90;95.90
46331;DHT22;32049;52.346;4.870;2022-09-03T03:58:03;17.90;95.90
46331;DHT22;32049;52.346;4.870;2022-09-03T04:00:51;17.80;95.90
46331;DHT22;32049;52.346;4.870;2022-09-03T04:03:39;17.90;96.10
46331;DHT22;32049;52.346;4.870;2022-09-03T04:06:27;17.90;96.10
46331;DHT22;32049;52.346;4.870;2022-09-03T04:09:15;17.90;96.10
46331;DHT22;32049;52.346;4.870;2022-09-03T04:12:03;17.80;96.20
46331;DHT22;32049;52.346;4.870;2022-09-03T04:14:54;17.80;96.20
46331;DHT22;32049;52.346;4.870;2022-09-03T04:17:42;17.80;96.30
46331;DHT22;32049;52.346;4.870;2022-09-03T04:20:30;17.80;96.30
46331;DHT22;32049;52.346;4.870;2022-09-03T04:23:17;17.70;96.40
46331;DHT22;32049;52.346;4.870;2022-09-03T04:26:06;17.80;96.50
46331;DHT22;32049;52.346;4.870;2022-09-03T04:28:53;17.70;96.50
46331;DHT22;32049;52.346;4.870;2022-09-03T04:31:41;17.70;96.50
46331;DHT22;32049;52.346;4.870;2022-09-03T04:34:52;17.70;96.60
46331;DHT22;32049;52.346;4.870;2022-09-03T04:37:39;17.60;96.80
46331;DHT22;32049;52.346;4.870;2022-09-03T04:40:26;17.80;96.60
46331;DHT22;32049;52.346;4.870;2022-09-03T04:43:14;17.60;96.70
46331;DHT22;32049;52.346;4.870;2022-09-03T04:46:04;17.60;96.80
46331;DHT22;32049;52.346;4.870;2022-09-03T04:48:53;17.60;96.80
46331;DHT22;32049;52.346;4.870;2022-09-03T04:51:41;17.50;96.90
46331;DHT22;32049;52.346;4.870;2022-09-03T04:54:31;17.50;96.80
46331;DHT22;32049;52.346;4.870;2022-09-03T04:57:18;17.40;97.20
46331;DHT22;32049;52.346;4.870;2022-09-03T05:00:07;17.40;97.00
46331;DHT22;32049;52.346;4.870;2022-09-03T05:02:59;17.40;97.30
46331;DHT22;32049;52.346;4.870;2022-09-03T05:05:52;17.40;97.10
46331;DHT22;32049;52.346;4.870;2022-09-03T05:08:39;17.40;97.30
46331;DHT22;32049;52.346;4.870;2022-09-03T05:11:27;17.30;97.40
46331;DHT22;32049;52.346;4.870;2022-09-03T05:14:14;17.40;97.30
46331;DHT22;32049;52.346;4.870;2022-09-03T05:17:02;17.50;97.30
46331;DHT22;32049;52.346;4.870;2022-09-03T05:19:49;17.40;97.50
46331;DHT22;32049;52.346;4.870;2022-09-03T05:22:37;17.30;97.80
46331;DHT22;32049;52.346;4.870;2022-09-03T05:25:24;17.40;97.60
46331;DHT22;32049;52.346;4.870;2022-09-03T05:28:12;17.30;97.40
46331;DHT22;32049;52.346;4.870;2022-09-03T05:31:14;17.30;97.60
46331;DHT22;32049;52.346;4.870;2022-09-03T05:34:03;17.40;97.50
46331;DHT22;32049;52.346;4.870;2022-09-03T05:36:51;17.40;97.30
46331;DHT22;32049;52.346;4.870;2022-09-03T05:39:39;17.50;97.40
46331;DHT22;32049;52.346;4.870;2022-09-03T05:42:26;17.50;97.50
46331;DHT22;32049;52.346;4.870;2022-09-03T05:45:15;17.50;97.50
46331;DHT22;32049;52.346;4.870;2022-09-03T05:48:03;17.60;97.60
46331;DHT22;32049;52.346;4.870;2022-09-03T05:50:58;17.60;97.40
46331;DHT22;32049;52.346;4.870;2022-09-03T05:53:47;17.70;97.20
46331;DHT22;32049;52.346;4.870;2022-09-03T05:56:37;17.60;97.30
46331;DHT22;32049;52.346;4.870;2022-09-03T05:59:26;17.60;97.30
46331;DHT22;32049;52.346;4.870;2022-09-03T06:02:13;17.50;97.30
46331;DHT22;32049;52.346;4.870;2022-09-03T06:05:01;17.70;97.50
46331;DHT22;32049;52.346;4.870;2022-09-03T06:07:49;17.70;97.60
46331;DHT22;32049;52.346;4.870;2022-09-03T06:10:38;17.90;97.70
46331;DHT22;32049;52.346;4.870;2022-09-03T06:13:27;17.80;97.40
46331;DHT22;32049;52.346;4.870;2022-09-03T06:16:16;17.90;97.60
46331;DHT22;32049;52.346;4.870;2022-09-03T06:19:04;17.90;97.10
46331;DHT22;32049;52.346;4.870;2022-09-03T06:21:53;17.90;97.00
46331;DHT22;32049;52.346;4.870;2022-09-03T06:24:41;18.10;98.10
46331;DHT22;32049;52.346;4.870;2022-09-03T06:27:28;18.30;98.00
46331;DHT22;32049;52.346;4.870;2022-09-03T06:30:17;18.60;98.70
46331;DHT22;32049;52.346;4.870;2022-09-03T06:33:04;18.50;98.60
46331;DHT22;32049;52.346;4.870;2022-09-03T06:35:56;18.50;98.10
46331;DHT22;32049;52.346;4.870;2022-09-03T06:38:45;18.50;97.00
46331;DHT22;32049;52.346;4.870;2022-09-03T06:41:33;18.40;97.60
46331;DHT22;32049;52.346;4.870;2022-09-03T06:44:21;18.30;97.80
46331;DHT22;32049;52.346;4.870;2022-09-03T06:47:09;18.30;97.00
46331;DHT22;32049;52.346;4.870;2022-09-03T06:49:56;18.50;97.20
46331;DHT22;32049;52.346;4.870;2022-09-03T06:52:50;18.50;97.00
46331;DHT22;32049;52.346;4.870;2022-09-03T06:55:39;18.90;97.60
46331;DHT22;32049;52.346;4.870;2022-09-03T06:58:35;19.00;96.40
46331;DHT22;32049;52.346;4.870;2022-09-03T07:01:26;18.90;96.10
46331;DHT22;32049;52.346;4.870;2022-09-03T07:04:17;19.10;97.90
46331;DHT22;32049;52.346;4.870;2022-09-03T07:07:06;19.10;96.40
46331;DHT22;32049;52.346;4.870;2022-09-03T07:09:59;19.00;96.30
46331;DHT22;32049;52.346;4.870;2022-09-03T07:12:48;19.40;96.60
46331;DHT22;32049;52.346;4.870;2022-09-03T07:15:35;19.40;96.70
46331;DHT22;32049;52.346;4.870;2022-09-03T07:18:23;19.30;97.40
46331;DHT22;32049;52.346;4.870;2022-09-03T07:21:15;19.30;95.80
46331;DHT22;32049;52.346;4.870;2022-09-03T07:24:04;19.30;96.50
46331;DHT22;32049;52.346;4.870;2022-09-03T07:26:52;19.20;96.00
46331;DHT22;32049;52.346;4.870;2022-09-03T07:29:39;19.50;96.50
46331;DHT22;32049;52.346;4.870;2022-09-03T07:32:27;19.40;96.30
46331;DHT22;32049;52.346;4.870;2022-09-03T07:35:14;19.70;95.70
46331;DHT22;32049;52.346;4.870;2022-09-03T07:38:02;19.80;96.50
46331;DHT22;32049;52.346;4.870;2022-09-03T07:40:56;19.80;95.80
46331;DHT22;32049;52.346;4.870;2022-09-03T07:43:46;19.90;95.90
46331;DHT22;32049;52.346;4.870;2022-09-03T07:46:36;19.70;95.30
46331;DHT22;32049;52.346;4.870;2022-09-03T07:49:24;19.80;95.50
46331;DHT22;32049;52.346;4.870;2022-09-03T07:52:11;20.20;95.30
46331;DHT22;32049;52.346;4.870;2022-09-03T07:55:04;20.10;95.00
46331;DHT22;32049;52.346;4.870;2022-09-03T07:57:55;20.20;95.00
46331;DHT22;32049;52.346;4.870;2022-09-03T08:04:05;20.80;95.00
46331;DHT22;32049;52.346;4.870;2022-09-03T08:06:56;20.90;94.50
46331;DHT22;32049;52.346;4.870;2022-09-03T08:09:45;20.70;94.70
46331;DHT22;32049;52.346;4.870;2022-09-03T08:12:33;20.80;94.50
46331;DHT22;32049;52.346;4.870;2022-09-03T08:15:21;20.90;94.50
46331;DHT22;32049;52.346;4.870;2022-09-03T08:18:08;20.90;94.30
46331;DHT22;32049;52.346;4.870;2022-09-03T08:20:59;21.00;94.40
46331;DHT22;32049;52.346;4.870;2022-09-03T08:23:48;21.00;94.10
46331;DHT22;32049;52.346;4.870;2022-09-03T08:26:38;21.20;94.20
46331;DHT22;32049;52.346;4.870;2022-09-03T08:29:27;21.30;94.40
46331;DHT22;32049;52.346;4.870;2022-09-03T08:32:14;21.30;94.20
46331;DHT22;32049;52.346;4.870;2022-09-03T08:35:03;22.10;93.90
46331;DHT22;32049;52.346;4.870;2022-09-03T08:37:51;22.40;92.90
46331;DHT22;32049;52.346;4.870;2022-09-03T08:40:43;22.70;92.90
46331;DHT22;32049;52.346;4.870;2022-09-03T08:43:38;23.40;92.70
46331;DHT22;32049;52.346;4.870;2022-09-03T08:52:34;23.60;91.50
46331;DHT22;32049;52.346;4.870;2022-09-03T08:55:33;22.90;91.90
46331;DHT22;32049;52.346;4.870;2022-09-03T08:58:25;22.90;92.10
46331;DHT22;32049;52.346;4.870;2022-09-03T09:04:23;23.40;92.30
46331;DHT22;32049;52.346;4.870;2022-09-03T09:07:27;23.40;92.20
46331;DHT22;32049;52.346;4.870;2022-09-03T09:55:32;24.80;90.40
46331;DHT22;32049;52.346;4.870;2022-09-03T09:58:23;24.90;90.50
46331;DHT22;32049;52.346;4.870;2022-09-03T10:01:20;25.10;90.40
46331;DHT22;32049;52.346;4.870;2022-09-03T10:04:11;24.80;90.20
46331;DHT22;32049;52.346;4.870;2022-09-03T10:07:22;24.80;90.10
46331;DHT22;32049;52.346;4.870;2022-09-03T10:10:16;25.70;90.40
46331;DHT22;32049;52.346;4.870;2022-09-03T10:13:07;25.60;89.60
46331;DHT22;32049;52.346;4.870;2022-09-03T10:16:06;25.50;89.90
46331;DHT22;32049;52.346;4.870;2022-09-03T10:19:05;26.20;89.30
46331;DHT22;32049;52.346;4.870;2022-09-03T10:22:08;26.30;88.30
46331;DHT22;32049;52.346;4.870;2022-09-03T10:25:01;26.00;88.10
46331;DHT22;32049;52.346;4.870;2022-09-03T10:27:53;25.60;87.70
46331;DHT22;32049;52.346;4.870;2022-09-03T10:30:55;25.70;88.10
46331;DHT22;32049;52.346;4.870;2022-09-03T10:37:00;26.30;88.20
46331;DHT22;32049;52.346;4.870;2022-09-03T10:40:28;26.40;86.00
46331;DHT22;32049;52.346;4.870;2022-09-03T10:46:28;26.30;86.50
46331;DHT22;32049;52.346;4.870;2022-09-03T10:49:30;26.40;86.10
46331;DHT22;32049;52.346;4.870;2022-09-03T10:52:25;27.20;85.90
46331;DHT22;32049;52.346;4.870;2022-09-03T10:55:22;27.60;86.60
46331;DHT22;32049;52.346;4.870;2022-09-03T11:07:47;27.30;84.10
46331;DHT22;32049;52.346;4.870;2022-09-03T11:10:41;27.70;85.20
46331;DHT22;32049;52.346;4.870;2022-09-03T11:13:34;27.60;84.80
46331;DHT22;32049;52.346;4.870;2022-09-03T11:16:32;27.50;83.60
46331;DHT22;32049;52.346;4.870;2022-09-03T11:19:31;27.20;83.50
46331;DHT22;32049;52.346;4.870;2022-09-03T11:22:23;27.40;84.80
46331;DHT22;32049;52.346;4.870;2022-09-03T11:25:14;27.80;84.20
46331;DHT22;32049;52.346;4.870;2022-09-03T11:34:14;28.10;83.40
46331;DHT22;32049;52.346;4.870;2022-09-03T11:37:26;28.50;83.80
46331;DHT22;32049;52.346;4.870;2022-09-03T11:40:15;28.60;82.00
46331;DHT22;32049;52.346;4.870;2022-09-03T11:49:12;28.50;82.80
46331;DHT22;32049;52.346;4.870;2022-09-03T11:52:01;28.40;82.40
46331;DHT22;32049;52.346;4.870;2022-09-03T11:54:50;28.40;82.20
46331;DHT22;32049;52.346;4.870;2022-09-03T12:00:49;28.60;82.90
46331;DHT22;32049;52.346;4.870;2022-09-03T12:04:04;28.40;82.60
46331;DHT22;32049;52.346;4.870;2022-09-03T12:07:25;28.00;81.10
46331;DHT22;32049;52.346;4.870;2022-09-03T12:19:49;29.20;80.30
46331;DHT22;32049;52.346;4.870;2022-09-03T12:22:37;28.80;80.30
46331;DHT22;32049;52.346;4.870;2022-09-03T12:25:25;29.00;80.40
46331;DHT22;32049;52.346;4.870;2022-09-03T12:28:18;29.50;80.20
46331;DHT22;32049;52.346;4.870;2022-09-03T12:34:14;29.40;78.20
46331;DHT22;32049;52.346;4.870;2022-09-03T12:37:02;30.40;78.50
46331;DHT22;32049;52.346;4.870;2022-09-03T12:39:53;30.70;77.70
46331;DHT22;32049;52.346;4.870;2022-09-03T12:43:10;31.10;77.90
46331;DHT22;32049;52.346;4.870;2022-09-03T12:46:21;30.60;76.70
46331;DHT22;32049;52.346;4.870;2022-09-03T12:49:20;29.90;76.90
46331;DHT22;32049;52.346;4.870;2022-09-03T12:58:15;31.00;77.60
46331;DHT22;32049;52.346;4.870;2022-09-03T13:04:20;30.60;76.00
46331;DHT22;32049;52.346;4.870;2022-09-03T13:10:25;30.80;76.00
46331;DHT22;32049;52.346;4.870;2022-09-03T13:13:23;30.70;75.90
46331;DHT22;32049;52.346;4.870;2022-09-03T13:23:01;31.20;76.40
46331;DHT22;32049;52.346;4.870;2022-09-03T13:26:11;31.10;76.30
46331;DHT22;32049;52.346;4.870;2022-09-03T13:32:43;31.00;75.10
46331;DHT22;32049;52.346;4.870;2022-09-03T13:41:48;31.40;75.50
46331;DHT22;32049;52.346;4.870;2022-09-03T13:44:55;30.80;75.30
46331;DHT22;32049;52.346;4.870;2022-09-03T13:55:00;30.90;74.50
46331;DHT22;32049;52.346;4.870;2022-09-03T13:57:58;31.50;75.10
46331;DHT22;32049;52.346;4.870;2022-09-03T14:01:01;31.70;74.90
46331;DHT22;32049;52.346;4.870;2022-09-03T14:04:01;31.50;74.70
46331;DHT22;32049;52.346;4.870;2022-09-03T14:06:59;31.00;74.80
46331;DHT22;32049;52.346;4.870;2022-09-03T14:09:58;30.70;74.80
46331;DHT22;32049;52.346;4.870;2022-09-03T14:13:05;30.50;74.70
46331;DHT22;32049;52.346;4.870;2022-09-03T14:16:11;30.50;74.30
46331;DHT22;32049;52.346;4.870;2022-09-03T14:19:31;30.90;75.10
46331;DHT22;32049;52.346;4.870;2022-09-03T14:22:29;31.20;75.30
46331;DHT22;32049;52.346;4.870;2022-09-03T14:25:23;30.70;74.30
46331;DHT22;32049;52.346;4.870;2022-09-03T14:31:45;30.60;73.70
46331;DHT22;32049;52.346;4.870;2022-09-03T14:47:21;30.60;73.70
46331;DHT22;32049;52.346;4.870;2022-09-03T14:57:09;30.50;75.30
46331;DHT22;32049;52.346;4.870;2022-09-03T15:00:14;30.50;75.30
46331;DHT22;32049;52.346;4.870;2022-09-03T15:15:09;30.00;75.10
46331;DHT22;32049;52.346;4.870;2022-09-03T15:31:00;29.00;77.60
46331;DHT22;32049;52.346;4.870;2022-09-03T15:34:00;29.20;78.70
46331;DHT22;32049;52.346;4.870;2022-09-03T15:36:54;29.20;78.70
46331;DHT22;32049;52.346;4.870;2022-09-03T15:39:44;29.30;78.60
46331;DHT22;32049;52.346;4.870;2022-09-03T15:42:35;29.50;78.90
46331;DHT22;32049;52.346;4.870;2022-09-03T15:45:38;29.60;78.10
46331;DHT22;32049;52.346;4.870;2022-09-03T15:48:36;29.10;77.20
46331;DHT22;32049;52.346;4.870;2022-09-03T15:51:46;29.30;77.50
46331;DHT22;32049;52.346;4.870;2022-09-03T15:54:38;29.40;79.10
46331;DHT22;32049;52.346;4.870;2022-09-03T15:57:46;29.20;76.50
46331;DHT22;32049;52.346;4.870;2022-09-03T16:07:06;28.60;75.70
46331;DHT22;32049;52.346;4.870;2022-09-03T16:20:05;28.10;79.10
46331;DHT22;32049;52.346;4.870;2022-09-03T16:25:56;27.80;78.70
46331;DHT22;32049;52.346;4.870;2022-09-03T16:28:53;27.90;79.40
46331;DHT22;32049;52.346;4.870;2022-09-03T16:32:08;27.60;77.90
46331;DHT22;32049;52.346;4.870;2022-09-03T16:38:24;27.40;79.90
46331;DHT22;32049;52.346;4.870;2022-09-03T17:15:02;26.40;83.50
46331;DHT22;32049;52.346;4.870;2022-09-03T17:24:03;26.00;83.10
46331;DHT22;32049;52.346;4.870;2022-09-03T17:27:08;26.00;83.60
46331;DHT22;32049;52.346;4.870;2022-09-03T17:30:51;25.90;84.90
46331;DHT22;32049;52.346;4.870;2022-09-03T17:36:25;25.60;84.70
46331;DHT22;32049;52.346;4.870;2022-09-03T17:42:48;25.40;85.80
46331;DHT22;32049;52.346;4.870;2022-09-03T17:45:53;25.50;86.50
46331;DHT22;32049;52.346;4.870;2022-09-03T17:48:51;25.30;86.80
46331;DHT22;32049;52.346;4.870;2022-09-03T17:51:43;25.30;86.60
46331;DHT22;32049;52.346;4.870;2022-09-03T17:54:44;25.20;87.30
46331;DHT22;32049;52.346;4.870;2022-09-03T17:57:42;25.10;88.10
46331;DHT22;32049;52.346;4.870;2022-09-03T18:00:44;25.20;89.20
46331;DHT22;32049;52.346;4.870;2022-09-03T18:19:36;25.00;90.90
46331;DHT22;32049;52.346;4.870;2022-09-03T18:26:19;24.90;91.40
46331;DHT22;32049;52.346;4.870;2022-09-03T18:29:38;24.80;91.70
46331;DHT22;32049;52.346;4.870;2022-09-03T18:32:47;24.80;92.10
46331;DHT22;32049;52.346;4.870;2022-09-03T18:35:54;24.70;92.20
46331;DHT22;32049;52.346;4.870;2022-09-03T18:39:24;24.70;92.20
46331;DHT22;32049;52.346;4.870;2022-09-03T18:50:34;24.40;93.40
46331;DHT22;32049;52.346;4.870;2022-09-03T19:04:46;24.40;94.10
46331;DHT22;32049;52.346;4.870;2022-09-03T19:08:31;24.20;95.00
46331;DHT22;32049;52.346;4.870;2022-09-03T19:15:09;24.20;95.20
46331;DHT22;32049;52.346;4.870;2022-09-03T19:24:52;24.10;96.10
46331;DHT22;32049;52.346;4.870;2022-09-03T19:28:24;24.20;96.00
46331;DHT22;32049;52.346;4.870;2022-09-03T19:35:18;24.30;96.00
46331;DHT22;32049;52.346;4.870;2022-09-03T19:38:48;24.20;96.30
46331;DHT22;32049;52.346;4.870;2022-09-03T19:42:10;24.10;96.50
46331;DHT22;32049;52.346;4.870;2022-09-03T19:46:03;23.90;97.00
46331;DHT22;32049;52.346;4.870;2022-09-03T19:48:54;23.80;97.40
46331;DHT22;32049;52.346;4.870;2022-09-03T19:55:29;23.20;98.60
46331;DHT22;32049;52.346;4.870;2022-09-03T19:58:54;23.20;98.90
46331;DHT22;32049;52.346;4.870;2022-09-03T20:02:04;23.10;99.00
46331;DHT22;32049;52.346;4.870;2022-09-03T20:05:16;23.00;99.30
46331;DHT22;32049;52.346;4.870;2022-09-03T20:08:24;23.00;99.50
46331;DHT22;32049;52.346;4.870;2022-09-03T20:11:31;23.00;99.80
46331;DHT22;32049;52.346;4.870;2022-09-03T20:14:18;22.90;99.90
46331;DHT22;32049;52.346;4.870;2022-09-03T20:17:08;22.80;99.90
46331;DHT22;32049;52.346;4.870;2022-09-03T20:20:16;22.70;99.90
46331;DHT22;32049;52.346;4.870;2022-09-03T20:23:13;22.70;99.90
46331;DHT22;32049;52.346;4.870;2022-09-03T20:26:24;22.70;99.90
46331;DHT22;32049;52.346;4.870;2022-09-03T20:32:44;22.70;99.90
46331;DHT22;32049;52.346;4.870;2022-09-03T20:42:27;22.60;99.90
46331;DHT22;32049;52.346;4.870;2022-09-03T20:48:43;22.60;99.90
46331;DHT22;32049;52.346;4.870;2022-09-03T20:52:00;22.50;99.90
46331;DHT22;32049;52.346;4.870;2022-09-03T20:55:02;22.40;99.90
46331;DHT22;32049;52.346;4.870;2022-09-03T20:58:14;22.40;99.90
46331;DHT22;32049;52.346;4.870;2022-09-03T21:01:08;22.30;99.90
46331;DHT22;32049;52.346;4.870;2022-09-03T21:07:43;22.30;99.90
46331;DHT22;32049;52.346;4.870;2022-09-03T21:11:10;22.20;99.90
46331;DHT22;32049;52.346;4.870;2022-09-03T21:14:21;22.10;99.90
46331;DHT22;32049;52.346;4.870;2022-09-03T21:26:21;21.90;99.90
46331;DHT22;32049;52.346;4.870;2022-09-03T21:32:13;21.90;99.90
46331;DHT22;32049;52.346;4.870;2022-09-03T21:38:12;21.60;99.90
46331;DHT22;32049;52.346;4.870;2022-09-03T21:41:22;21.60;99.90
46331;DHT22;32049;52.346;4.870;2022-09-03T21:44:20;21.70;99.90
46331;DHT22;32049;52.346;4.870;2022-09-03T21:47:17;21.70;99.90
46331;DHT22;32049;52.346;4.870;2022-09-03T21:53:10;21.60;99.90
46331;DHT22;32049;52.346;4.870;2022-09-03T21:56:18;21.70;99.90
46331;DHT22;32049;52.346;4.870;2022-09-03T21:59:17;21.60;99.90
46331;DHT22;32049;52.346;4.870;2022-09-03T22:02:26;21.60;99.90
46331;DHT22;32049;52.346;4.870;2022-09-03T22:05:15;21.60;99.90
46331;DHT22;32049;52.346;4.870;2022-09-03T22:08:11;21.50;99.90
46331;DHT22;32049;52.346;4.870;2022-09-03T22:11:24;21.60;99.90
46331;DHT22;32049;52.346;4.870;2022-09-03T22:14:16;21.60;99.90
46331;DHT22;32049;52.346;4.870;2022-09-03T22:17:10;21.50;99.90
46331;DHT22;32049;52.346;4.870;2022-09-03T22:20:04;21.40;99.90
46331;DHT22;32049;52.346;4.870;2022-09-03T22:22:54;21.40;99.90
46331;DHT22;32049;52.346;4.870;2022-09-03T22:25:53;21.20;99.90
46331;DHT22;32049;52.346;4.870;2022-09-03T22:29:07;21.20;99.90
46331;DHT22;32049;52.346;4.870;2022-09-03T22:39:28;21.30;99.90
46331;DHT22;32049;52.346;4.870;2022-09-03T22:45:33;21.10;99.90
46331;DHT22;32049;52.346;4.870;2022-09-03T22:52:07;21.10;99.90
46331;DHT22;32049;52.346;4.870;2022-09-03T22:55:15;21.00;99.90
46331;DHT22;32049;52.346;4.870;2022-09-03T22:58:08;21.10;99.90
46331;DHT22;32049;52.346;4.870;2022-09-03T23:01:38;21.10;99.90
46331;DHT22;32049;52.346;4.870;2022-09-03T23:07:57;21.10;99.90
46331;DHT22;32049;52.346;4.870;2022-09-03T23:11:08;21.10;99.90
46331;DHT22;32049;52.346;4.870;2022-09-03T23:14:04;21.20;99.90
46331;DHT22;32049;52.346;4.870;2022-09-03T23:16:58;21.20;99.90
46331;DHT22;32049;52.346;4.870;2022-09-03T23:20:06;21.20;99.90
46331;DHT22;32049;52.346;4.870;2022-09-03T23:23:03;21.20;99.90
46331;DHT22;32049;52.346;4.870;2022-09-03T23:29:10;21.00;99.90
46331;DHT22;32049;52.346;4.870;2022-09-03T23:31:58;21.20;99.90
46331;DHT22;32049;52.346;4.870;2022-09-03T23:34:46;21.20;99.90
46331;DHT22;32049;52.346;4.870;2022-09-03T23:40:46;21.20;99.90
46331;DHT22;32049;52.346;4.870;2022-09-03T23:43:59;21.20;99.90
46331;DHT22;32049;52.346;4.870;2022-09-03T23:47:07;21.20;99.90
